Time;durP1;ratioP1;P1;durP2;ratioP2;P2;SDS_P1;SDS_P2;PMS_P1;PMS_P2;Temp;Humidity;BMP_temperature;BMP_pressure;BME280_temperature;BME280_humidity;BME280_pressure;Samples;Min_cycle;Max_cycle;Signal;HPM_P1;HPM_P2
2022/07/16 00:03:02;;;;;;;;;;;;;;;21.70;58.60;100701.97;5035425;28;19927;-80
2022/07/16 00:05:27;;;;;;;;;;;;;;;21.78;58.50;100703.53;5036567;28;19909;-80
2022/07/16 00:07:54;;;;;;;;;;;;;;;21.76;58.80;100702.94;5036754;28;19909;-80
2022/07/16 00:10:19;;;;;;;;;;;;;;;21.76;58.39;100703.78;5014304;28;19917;-80
2022/07/16 00:12:45;;;;;;;;;;;;;;;21.77;58.24;100701.88;5033002;28;20434;-80
2022/07/16 00:15:10;;;;;;;;;;;;;;;21.75;58.09;100702.13;5013779;28;19909;-81
2022/07/16 00:17:35;;;;;;;;;;;;;;;21.71;58.32;100696.25;5039466;28;19920;-80
2022/07/16 00:20:01;;;;;;;;;;;;;;;21.71;58.66;100703.66;5031389;28;19909;-80
2022/07/16 00:22:26;;;;;;;;;;;;;;;21.62;58.95;100696.84;5036429;28;19912;-80
2022/07/16 00:24:51;;;;;;;;;;;;;;;21.67;58.82;100695.06;5031261;28;20281;-82
2022/07/16 00:27:17;;;;;;;;;;;;;;;21.65;58.69;100691.72;5015706;28;20262;-79
2022/07/16 00:29:42;;;;;;;;;;;;;;;21.65;58.60;100686.25;4999938;28;20029;-79
2022/07/16 00:32:08;;;;;;;;;;;;;;;21.66;58.49;100690.66;5015931;28;20404;-79
2022/07/16 00:34:33;;;;;;;;;;;;;;;21.64;58.46;100695.53;5020639;28;19909;-79
2022/07/16 00:36:58;;;;;;;;;;;;;;;21.59;58.50;100689.09;5032119;28;19917;-81
2022/07/16 00:39:24;;;;;;;;;;;;;;;21.58;58.73;100685.50;5020639;28;20361;-80
2022/07/16 00:41:49;;;;;;;;;;;;;;;21.58;58.79;100690.97;5015285;28;20387;-80
2022/07/16 00:44:15;;;;;;;;;;;;;;;21.58;58.55;100682.78;5021791;28;19912;-81
2022/07/16 00:46:41;;;;;;;;;;;;;;;21.57;58.69;100672.91;5032764;28;19916;-81
2022/07/16 00:49:06;;;;;;;;;;;;;;;21.56;58.79;100673.97;5021838;28;20003;-81
2022/07/16 00:51:32;;;;;;;;;;;;;;;21.52;58.87;100672.78;5032179;28;19946;-81
2022/07/16 00:53:57;;;;;;;;;;;;;;;21.51;58.83;100673.84;5031311;28;20377;-80
2022/07/16 00:56:23;;;;;;;;;;;;;;;21.41;59.22;100679.03;5031463;28;20348;-79
2022/07/16 00:58:48;;;;;;;;;;;;;;;21.42;59.29;100676.09;5018433;28;19956;-79
2022/07/16 01:01:14;;;;;;;;;;;;;;;21.37;59.97;100680.53;5030817;28;19955;-79
2022/07/16 01:03:39;;;;;;;;;;;;;;;21.37;59.80;100675.06;5036076;28;19913;-79
2022/07/16 01:06:05;;;;;;;;;;;;;;;21.31;59.85;100678.75;5014016;28;20146;-81
2022/07/16 01:08:30;;;;;;;;;;;;;;;21.29;59.86;100677.06;5034689;28;19916;-79
2022/07/16 01:10:58;;;;;;;;;;;;;;;21.35;59.97;100674.47;5033305;28;20008;-79
2022/07/16 01:13:24;;;;;;;;;;;;;;;21.31;60.94;100678.75;5013303;28;19912;-80
2022/07/16 01:15:49;;;;;;;;;;;;;;;21.24;61.78;100673.34;5012873;28;19924;-80
2022/07/16 01:18:14;;;;;;;;;;;;;;;21.20;62.13;100672.16;5033236;28;19913;-80
2022/07/16 01:20:40;;;;;;;;;;;;;;;21.25;62.17;100672.28;5039815;28;19920;-79
2022/07/16 01:23:05;;;;;;;;;;;;;;;21.27;62.31;100673.72;5019774;28;19924;-79
2022/07/16 01:25:30;;;;;;;;;;;;;;;21.20;62.82;100675.72;5012971;28;20003;-79
2022/07/16 01:27:56;;;;;;;;;;;;;;;21.15;63.06;100672.84;5019469;28;19920;-80
2022/07/16 01:30:21;;;;;;;;;;;;;;;21.26;62.61;100671.22;5030221;28;19908;-79
2022/07/16 01:32:47;;;;;;;;;;;;;;;21.17;62.98;100672.63;5017776;28;19913;-79
2022/07/16 01:35:12;;;;;;;;;;;;;;;21.16;63.02;100666.28;4996128;28;19904;-80
2022/07/16 01:37:37;;;;;;;;;;;;;;;21.11;63.25;100676.25;5030584;28;19925;-79
2022/07/16 01:40:03;;;;;;;;;;;;;;;21.13;63.22;100676.88;5030538;28;19909;-79
2022/07/16 01:42:28;;;;;;;;;;;;;;;21.17;63.01;100680.81;5037762;28;20273;-79
2022/07/16 01:44:54;;;;;;;;;;;;;;;21.19;63.11;100681.41;5019339;28;19956;-79
2022/07/16 01:47:19;;;;;;;;;;;;;;;21.02;63.58;100681.19;4995246;28;20004;-80
2022/07/16 01:49:45;;;;;;;;;;;;;;;21.07;63.56;100676.72;5008647;28;19978;-79
2022/07/16 01:52:12;;;;;;;;;;;;;;;21.13;63.11;100672.22;5035331;28;19924;-80
2022/07/16 01:54:41;;;;;;;;;;;;;;;21.18;62.93;100674.28;5018103;28;20424;-80
2022/07/16 01:57:06;;;;;;;;;;;;;;;21.19;63.10;100679.53;5019268;28;19924;-80
2022/07/16 01:59:32;;;;;;;;;;;;;;;21.19;62.84;100679.53;5018296;28;19987;-80
2022/07/16 02:01:57;;;;;;;;;;;;;;;21.24;62.81;100681.56;5036660;28;19908;-78
2022/07/16 02:04:22;;;;;;;;;;;;;;;21.21;62.87;100679.28;5042524;28;19909;-81
2022/07/16 02:06:48;;;;;;;;;;;;;;;21.18;62.99;100685.22;5037205;28;19971;-81
2022/07/16 02:09:13;;;;;;;;;;;;;;;21.15;63.00;100689.25;5037527;28;19909;-81
2022/07/16 02:11:38;;;;;;;;;;;;;;;21.16;62.84;100688.16;5017724;28;19924;-80
2022/07/16 02:14:04;;;;;;;;;;;;;;;21.14;62.99;100695.78;5021785;28;20051;-80
2022/07/16 02:16:29;;;;;;;;;;;;;;;21.15;62.67;100696.63;5017082;28;20385;-80
2022/07/16 02:18:54;;;;;;;;;;;;;;;21.11;62.66;100712.63;5042999;28;20374;-81
2022/07/16 02:21:20;;;;;;;;;;;;;;;21.10;62.69;100710.13;5021043;28;20384;-80
2022/07/16 02:23:45;;;;;;;;;;;;;;;21.08;62.23;100700.25;5040406;28;19917;-81
2022/07/16 02:26:10;;;;;;;;;;;;;;;21.09;62.27;100692.88;5033768;28;19971;-80
2022/07/16 02:28:36;;;;;;;;;;;;;;;21.06;62.16;100677.78;5022207;28;20369;-80
2022/07/16 02:31:01;;;;;;;;;;;;;;;21.07;62.17;100689.53;5034149;28;19909;-81
2022/07/16 02:33:26;;;;;;;;;;;;;;;21.02;62.53;100703.88;5016894;28;19909;-81
2022/07/16 02:35:52;;;;;;;;;;;;;;;21.02;62.61;100701.16;5044748;28;19917;-84
2022/07/16 02:38:18;;;;;;;;;;;;;;;21.03;62.42;100693.81;5023262;28;20308;-80
2022/07/16 02:40:43;;;;;;;;;;;;;;;20.99;62.37;100703.53;5033083;28;19912;-80
2022/07/16 02:43:08;;;;;;;;;;;;;;;20.99;62.12;100698.06;5040610;28;19920;-80
2022/07/16 02:45:35;;;;;;;;;;;;;;;20.99;61.56;100698.88;5016586;28;19913;-80
2022/07/16 02:48:01;;;;;;;;;;;;;;;20.97;61.31;100694.72;5035173;28;20004;-80
2022/07/16 02:50:26;;;;;;;;;;;;;;;20.96;61.17;100704.00;5032982;28;20019;-80
2022/07/16 02:52:52;;;;;;;;;;;;;;;20.94;61.10;100695.19;5040571;28;19916;-84
2022/07/16 02:55:17;;;;;;;;;;;;;;;20.93;61.04;100691.63;5025591;28;19920;-79
2022/07/16 02:57:42;;;;;;;;;;;;;;;20.93;60.03;100688.03;5028747;28;19908;-80
2022/07/16 03:00:08;;;;;;;;;;;;;;;20.95;60.02;100685.91;5016186;28;19920;-79
2022/07/16 03:02:34;;;;;;;;;;;;;;;20.95;59.99;100691.38;5037592;28;19909;-79
2022/07/16 03:04:59;;;;;;;;;;;;;;;20.96;59.96;100704.00;5024917;28;19920;-82
2022/07/16 03:07:24;;;;;;;;;;;;;;;20.95;60.09;100694.94;5035428;28;20338;-80
2022/07/16 03:09:50;;;;;;;;;;;;;;;20.94;59.86;100700.66;5019228;28;19919;-80
2022/07/16 03:12:15;;;;;;;;;;;;;;;20.98;59.63;100699.13;5017448;28;19913;-81
2022/07/16 03:14:40;;;;;;;;;;;;;;;20.96;59.65;100696.63;5037909;28;19913;-81
2022/07/16 03:17:06;;;;;;;;;;;;;;;21.01;59.18;100701.41;5035049;28;19908;-80
2022/07/16 03:19:31;;;;;;;;;;;;;;;21.02;58.85;100692.97;5023898;28;19912;-81
2022/07/16 03:21:56;;;;;;;;;;;;;;;21.06;58.82;100705.13;5042186;28;19921;-80
2022/07/16 03:24:22;;;;;;;;;;;;;;;21.11;58.37;100696.22;5027948;28;19958;-80
2022/07/16 03:26:47;;;;;;;;;;;;;;;21.14;58.24;100704.00;5036659;28;20003;-80
2022/07/16 03:29:12;;;;;;;;;;;;;;;21.16;58.56;100710.03;5014707;28;19913;-78
2022/07/16 03:31:38;;;;;;;;;;;;;;;21.16;57.96;100701.00;5032723;28;19919;-79
2022/07/16 03:34:03;;;;;;;;;;;;;;;21.16;58.19;100696.38;5018718;28;20388;-80
2022/07/16 03:36:28;;;;;;;;;;;;;;;21.23;58.22;100705.31;5038830;28;19913;-80
2022/07/16 03:39:06;;;;;;;;;;;;;;;21.28;58.45;100702.75;5028040;28;19909;-79
2022/07/16 03:41:32;;;;;;;;;;;;;;;21.33;58.12;100707.53;5018056;28;19916;-79
2022/07/16 03:43:58;;;;;;;;;;;;;;;21.36;57.78;100701.59;5027209;28;19909;-81
2022/07/16 03:46:23;;;;;;;;;;;;;;;21.35;58.02;100710.00;5023309;28;19909;-82
2022/07/16 03:48:48;;;;;;;;;;;;;;;21.43;58.08;100707.00;5023832;28;20027;-80
2022/07/16 03:51:14;;;;;;;;;;;;;;;21.48;58.12;100721.63;4998000;28;19999;-79
2022/07/16 03:53:39;;;;;;;;;;;;;;;21.49;58.20;100722.47;5035623;28;19920;-79
2022/07/16 03:56:05;;;;;;;;;;;;;;;21.41;58.83;100720.88;4992810;28;19909;-79
2022/07/16 03:58:30;;;;;;;;;;;;;;;21.46;58.89;100723.75;5039470;28;19921;-81
2022/07/16 04:00:55;;;;;;;;;;;;;;;21.41;59.46;100722.78;5015948;28;20275;-79
2022/07/16 04:03:21;;;;;;;;;;;;;;;21.49;59.55;100719.72;5034001;28;20361;-79
2022/07/16 04:05:46;;;;;;;;;;;;;;;21.53;59.50;100729.16;5020643;28;20278;-79
2022/07/16 04:08:11;;;;;;;;;;;;;;;21.58;59.63;100721.06;5034671;28;19956;-79
2022/07/16 04:10:37;;;;;;;;;;;;;;;21.69;59.35;100717.53;5017535;28;19952;-80
2022/07/16 04:13:02;;;;;;;;;;;;;;;21.82;58.95;100723.88;5036464;28;19913;-81
2022/07/16 04:15:27;;;;;;;;;;;;;;;21.96;58.58;100725.38;5018981;28;19909;-80
2022/07/16 04:17:53;;;;;;;;;;;;;;;22.11;58.08;100728.47;5033975;28;19963;-80
2022/07/16 04:20:18;;;;;;;;;;;;;;;22.29;57.58;100718.53;5023015;28;20012;-78
2022/07/16 04:22:43;;;;;;;;;;;;;;;22.38;57.43;100730.78;5037459;28;20487;-79
2022/07/16 04:25:09;;;;;;;;;;;;;;;22.47;57.50;100736.75;5015100;28;19948;-80
2022/07/16 04:27:34;;;;;;;;;;;;;;;22.62;57.30;100730.81;5036855;28;20414;-81
2022/07/16 04:29:59;;;;;;;;;;;;;;;22.80;56.76;100725.16;5031788;28;20452;-80
2022/07/16 04:32:25;;;;;;;;;;;;;;;22.94;56.06;100731.22;5035491;28;19913;-81
2022/07/16 04:34:50;;;;;;;;;;;;;;;23.02;55.81;100732.81;5031593;28;20226;-81
2022/07/16 04:37:15;;;;;;;;;;;;;;;23.18;55.18;100732.88;5035202;28;19967;-80
2022/07/16 04:39:40;;;;;;;;;;;;;;;23.37;55.00;100730.78;5031313;28;19948;-79
2022/07/16 04:42:06;;;;;;;;;;;;;;;23.56;54.75;100727.88;5032283;28;19996;-80
2022/07/16 04:44:31;;;;;;;;;;;;;;;23.70;53.96;100734.72;5022272;28;19913;-80
2022/07/16 04:46:57;;;;;;;;;;;;;;;23.91;53.60;100729.63;5032674;28;19916;-80
2022/07/16 04:49:22;;;;;;;;;;;;;;;24.13;52.13;100732.47;5022146;28;19931;-81
2022/07/16 04:51:47;;;;;;;;;;;;;;;24.33;52.01;100731.97;5034403;28;19920;-79
2022/07/16 04:54:13;;;;;;;;;;;;;;;24.52;51.20;100738.06;5014120;28;20405;-81
2022/07/16 04:56:38;;;;;;;;;;;;;;;24.72;49.81;100738.34;5032481;28;19999;-80
2022/07/16 04:59:03;;;;;;;;;;;;;;;24.83;49.87;100737.41;5033931;28;19930;-80
2022/07/16 05:01:29;;;;;;;;;;;;;;;25.06;49.51;100739.09;5031262;28;20234;-80
2022/07/16 05:03:54;;;;;;;;;;;;;;;25.32;47.55;100738.59;5035163;28;19962;-81
2022/07/16 05:06:19;;;;;;;;;;;;;;;25.51;47.04;100736.34;5030595;28;19909;-80
2022/07/16 05:08:45;;;;;;;;;;;;;;;25.76;45.60;100728.34;5018165;28;19908;-80
2022/07/16 05:11:10;;;;;;;;;;;;;;;26.02;45.93;100742.41;5013517;28;20656;-80
2022/07/16 05:13:35;;;;;;;;;;;;;;;26.30;45.31;100738.50;5018703;28;20444;-81
2022/07/16 05:16:02;;;;;;;;;;;;;;;26.47;45.57;100743.84;5033526;28;19913;-80
2022/07/16 05:18:27;;;;;;;;;;;;;;;26.73;44.07;100740.19;5004526;28;19913;-80
2022/07/16 05:20:53;;;;;;;;;;;;;;;27.01;42.56;100745.56;5039333;28;19913;-81
2022/07/16 05:23:18;;;;;;;;;;;;;;;27.21;41.74;100747.66;5037293;28;20007;-80
2022/07/16 05:25:43;;;;;;;;;;;;;;;27.40;41.77;100757.09;5030395;28;19948;-79
2022/07/16 05:28:09;;;;;;;;;;;;;;;27.61;40.55;100757.97;5018135;28;20373;-80
2022/07/16 05:30:34;;;;;;;;;;;;;;;27.80;40.08;100766.56;4996290;28;19959;-79
2022/07/16 05:32:59;;;;;;;;;;;;;;;28.03;40.65;100765.25;5022333;28;19995;-80
2022/07/16 05:35:25;;;;;;;;;;;;;;;28.32;39.95;100771.06;5013666;28;19959;-79
2022/07/16 05:37:50;;;;;;;;;;;;;;;28.55;39.19;100760.56;5035354;28;20289;-79
2022/07/16 05:40:15;;;;;;;;;;;;;;;28.80;38.34;100763.28;5008127;28;20381;-79
2022/07/16 05:42:41;;;;;;;;;;;;;;;28.91;37.20;100761.31;5018045;28;19921;-80
2022/07/16 05:45:06;;;;;;;;;;;;;;;28.97;38.17;100764.91;5012704;28;19915;-81
2022/07/16 05:47:33;;;;;;;;;;;;;;;28.86;37.98;100766.88;5033089;28;19916;-81
2022/07/16 05:50:00;;;;;;;;;;;;;;;28.99;37.85;100771.00;5037513;28;19909;-81
2022/07/16 05:52:25;;;;;;;;;;;;;;;29.24;37.45;100784.78;5015345;28;19944;-81
2022/07/16 05:54:50;;;;;;;;;;;;;;;29.29;35.57;100778.41;5020762;28;19948;-81
2022/07/16 05:57:16;;;;;;;;;;;;;;;29.40;35.37;100779.16;5015185;28;20029;-80
2022/07/16 05:59:41;;;;;;;;;;;;;;;29.66;35.72;100772.38;5014837;28;19948;-80
2022/07/16 06:02:06;;;;;;;;;;;;;;;29.67;35.51;100778.78;5015107;28;19920;-80
2022/07/16 06:04:32;;;;;;;;;;;;;;;29.81;34.83;100782.56;5015834;28;19908;-78
2022/07/16 06:06:57;;;;;;;;;;;;;;;29.92;34.79;100776.94;5032928;28;19913;-79
2022/07/16 06:09:22;;;;;;;;;;;;;;;29.97;36.15;100777.75;5034885;28;20780;-80
2022/07/16 06:11:48;;;;;;;;;;;;;;;29.84;36.72;100781.16;5014906;28;19912;-79
2022/07/16 06:14:13;;;;;;;;;;;;;;;29.56;38.44;100785.47;5016951;28;19959;-80
2022/07/16 06:16:39;;;;;;;;;;;;;;;29.80;38.09;100785.63;5031397;28;19924;-82
2022/07/16 06:19:05;;;;;;;;;;;;;;;29.91;38.09;100792.75;5002621;28;19939;-80
2022/07/16 06:21:30;;;;;;;;;;;;;;;29.72;37.68;100794.53;4999402;28;20427;-80
2022/07/16 06:23:55;;;;;;;;;;;;;;;29.27;38.46;100802.75;5036805;28;20417;-79
2022/07/16 06:26:21;;;;;;;;;;;;;;;29.25;38.94;100797.50;5011647;28;20345;-82
2022/07/16 06:28:46;;;;;;;;;;;;;;;29.21;39.53;100801.94;5019931;28;20033;-80
2022/07/16 06:31:11;;;;;;;;;;;;;;;29.30;39.32;100796.66;5012480;28;19916;-80
2022/07/16 06:33:37;;;;;;;;;;;;;;;29.22;39.01;100795.31;5041107;28;19940;-79
2022/07/16 06:36:03;;;;;;;;;;;;;;;29.55;38.63;100789.31;5033890;28;19913;-80
2022/07/16 06:38:32;;;;;;;;;;;;;;;29.41;37.08;100795.50;5006215;28;19909;-82
2022/07/16 06:40:57;;;;;;;;;;;;;;;29.83;37.03;100791.44;5015815;28;20332;-79
2022/07/16 06:43:23;;;;;;;;;;;;;;;29.71;36.93;100790.09;5038968;28;19909;-81
2022/07/16 06:45:48;;;;;;;;;;;;;;;29.27;38.69;100794.47;5033459;28;20288;-80
2022/07/16 06:48:13;;;;;;;;;;;;;;;29.44;38.44;100800.47;5016571;28;20412;-79
2022/07/16 06:50:39;;;;;;;;;;;;;;;29.39;38.03;100796.91;5033881;28;19988;-80
2022/07/16 06:53:04;;;;;;;;;;;;;;;29.56;37.89;100793.75;5017441;28;19944;-79
2022/07/16 06:55:30;;;;;;;;;;;;;;;29.52;37.63;100790.72;5015200;28;19913;-79
2022/07/16 06:57:55;;;;;;;;;;;;;;;29.83;36.51;100791.44;5017394;28;19909;-79
2022/07/16 07:00:20;;;;;;;;;;;;;;;30.21;36.75;100796.44;5035031;28;20063;-82
2022/07/16 07:02:46;;;;;;;;;;;;;;;30.19;36.56;100795.88;5034977;28;19968;-79
2022/07/16 07:05:11;;;;;;;;;;;;;;;30.42;36.06;100797.94;5036110;28;19944;-79
2022/07/16 07:07:36;;;;;;;;;;;;;;;30.04;35.83;100797.66;5017847;28;20032;-78
2022/07/16 07:10:02;;;;;;;;;;;;;;;29.63;35.77;100800.63;5033107;28;19916;-81
2022/07/16 07:12:27;;;;;;;;;;;;;;;29.73;35.93;100798.97;5018344;28;19920;-80
2022/07/16 07:14:53;;;;;;;;;;;;;;;29.76;35.48;100798.38;5022171;28;20414;-80
2022/07/16 07:17:18;;;;;;;;;;;;;;;29.80;36.53;100808.59;5034872;28;19917;-80
2022/07/16 07:19:43;;;;;;;;;;;;;;;29.33;38.33;100820.16;5041886;28;19995;-81
2022/07/16 07:22:09;;;;;;;;;;;;;;;29.21;41.40;100818.53;5036005;28;19921;-81
2022/07/16 07:24:34;;;;;;;;;;;;;;;29.05;40.96;100817.72;5019412;28;19909;-80
2022/07/16 07:26:59;;;;;;;;;;;;;;;29.56;39.97;100813.16;5035664;28;19971;-79
2022/07/16 07:29:25;;;;;;;;;;;;;;;29.99;38.94;100822.66;5038103;28;19909;-80
2022/07/16 07:31:50;;;;;;;;;;;;;;;30.50;38.65;100819.50;5032959;28;19913;-82
2022/07/16 07:34:15;;;;;;;;;;;;;;;31.03;38.89;100817.91;4999635;28;19959;-80
2022/07/16 07:36:41;;;;;;;;;;;;;;;30.84;40.50;100824.22;5028296;28;19954;-79
2022/07/16 07:39:07;;;;;;;;;;;;;;;31.07;41.02;100827.28;5035570;28;19913;-83
2022/07/16 07:41:32;;;;;;;;;;;;;;;31.29;40.57;100827.59;5033447;28;19963;-80
2022/07/16 07:43:57;;;;;;;;;;;;;;;31.28;40.58;100831.50;5044799;28;19909;-80
2022/07/16 07:46:23;;;;;;;;;;;;;;;31.55;40.48;100832.88;5040789;28;19989;-84
2022/07/16 07:48:48;;;;;;;;;;;;;;;32.01;39.43;100832.28;5048136;28;19982;-80
2022/07/16 07:51:16;;;;;;;;;;;;;;;32.37;38.50;100837.25;5015363;28;19909;-79
2022/07/16 07:53:44;;;;;;;;;;;;;;;32.22;39.18;100837.50;5016502;28;19924;-80
2022/07/16 07:56:10;;;;;;;;;;;;;;;31.55;40.56;100839.25;5014200;28;19913;-79
2022/07/16 07:58:36;;;;;;;;;;;;;;;31.91;39.75;100844.34;5018872;28;19940;-79
2022/07/16 08:01:02;;;;;;;;;;;;;;;32.30;38.61;100834.84;5026983;28;19909;-80
2022/07/16 08:03:27;;;;;;;;;;;;;;;32.03;39.18;100849.47;5032662;28;20396;-80
2022/07/16 08:05:52;;;;;;;;;;;;;;;31.74;39.94;100838.44;5032783;28;19909;-79
2022/07/16 08:08:18;;;;;;;;;;;;;;;31.85;39.46;100847.47;5042506;28;19920;-81
2022/07/16 08:10:43;;;;;;;;;;;;;;;31.03;41.29;100846.50;5014599;28;19915;-78
2022/07/16 08:13:09;;;;;;;;;;;;;;;30.91;41.46;100843.31;5016385;28;19913;-81
2022/07/16 08:15:35;;;;;;;;;;;;;;;31.59;40.07;100847.81;5017851;28;19940;-79
2022/07/16 08:18:00;;;;;;;;;;;;;;;31.52;40.56;100841.81;5033747;28;19952;-80
2022/07/16 08:20:25;;;;;;;;;;;;;;;31.72;40.20;100846.25;5013915;28;19920;-80
2022/07/16 08:22:51;;;;;;;;;;;;;;;32.36;38.88;100847.56;5037084;28;19917;-79
2022/07/16 08:27:59;;;;;;;;;;;;;;;32.16;39.17;100850.66;5038615;28;19918;-82
2022/07/16 08:30:25;;;;;;;;;;;;;;;33.07;38.14;100846.66;5031289;28;19909;-77
2022/07/16 08:32:50;;;;;;;;;;;;;;;32.35;37.60;100845.06;5017526;28;19920;-80
2022/07/16 08:35:15;;;;;;;;;;;;;;;32.06;38.47;100854.44;5033666;28;19909;-78
2022/07/16 08:37:42;;;;;;;;;;;;;;;32.57;37.63;100855.63;5036090;28;20381;-78
2022/07/16 08:40:08;;;;;;;;;;;;;;;32.50;37.55;100850.44;5025417;28;20361;-79
2022/07/16 08:42:34;;;;;;;;;;;;;;;32.16;38.40;100851.47;5035725;28;19913;-80
2022/07/16 08:44:59;;;;;;;;;;;;;;;31.89;39.61;100854.94;5031226;28;19916;-79
2022/07/16 08:47:25;;;;;;;;;;;;;;;31.71;39.75;100867.66;5031822;28;19952;-81
2022/07/16 08:49:50;;;;;;;;;;;;;;;32.04;39.26;100859.47;4994003;28;19909;-81
2022/07/16 08:52:16;;;;;;;;;;;;;;;32.48;38.96;100860.19;5014107;28;19936;-80
2022/07/16 08:54:41;;;;;;;;;;;;;;;32.62;38.58;100857.50;5021798;28;19917;-79
2022/07/16 08:57:08;;;;;;;;;;;;;;;32.04;39.62;100859.47;5015806;28;19912;-81
2022/07/16 08:59:34;;;;;;;;;;;;;;;32.50;38.28;100856.00;5022271;28;20289;-79
2022/07/16 09:01:59;;;;;;;;;;;;;;;32.26;38.62;100856.06;5014571;28;19912;-78
2022/07/16 09:04:24;;;;;;;;;;;;;;;32.24;39.03;100863.91;4999568;28;19913;-80
2022/07/16 09:06:50;;;;;;;;;;;;;;;32.46;38.78;100859.66;5033377;28;19912;-80
2022/07/16 09:09:15;;;;;;;;;;;;;;;32.37;38.01;100856.72;5013539;28;19908;-81
2022/07/16 09:11:41;;;;;;;;;;;;;;;32.56;38.13;100849.19;5014256;28;20013;-82
2022/07/16 09:14:06;;;;;;;;;;;;;;;32.66;38.26;100861.28;4995910;28;19913;-80
2022/07/16 09:16:33;;;;;;;;;;;;;;;32.93;37.56;100864.16;5031270;28;19909;-80
2022/07/16 09:19:04;;;;;;;;;;;;;;;33.50;36.26;100868.66;5010570;28;19908;-79
2022/07/16 09:21:29;;;;;;;;;;;;;;;33.30;36.40;100867.94;5034571;28;20288;-80
2022/07/16 09:23:55;;;;;;;;;;;;;;;34.38;34.67;100874.00;5037018;28;19920;-79
2022/07/16 09:26:20;;;;;;;;;;;;;;;35.37;32.85;100873.94;5011891;28;19908;-86
2022/07/16 09:28:50;;;;;;;;;;;;;;;35.85;32.79;100868.34;5022981;28;19960;-80
2022/07/16 09:31:34;;;;;;;;;;;;;;;36.13;32.14;100865.28;5020049;28;20043;-80
2022/07/16 09:34:06;;;;;;;;;;;;;;;35.45;33.12;100873.97;5032226;28;19945;-80
2022/07/16 09:36:31;;;;;;;;;;;;;;;35.79;32.43;100866.84;5013919;28;20322;-81
2022/07/16 09:38:56;;;;;;;;;;;;;;;35.89;31.26;100880.53;5038866;28;19913;-81
2022/07/16 09:41:22;;;;;;;;;;;;;;;36.48;31.28;100876.44;5038029;28;19909;-82
2022/07/16 09:43:47;;;;;;;;;;;;;;;36.40;31.69;100877.28;5022004;28;20373;-81
2022/07/16 09:46:17;;;;;;;;;;;;;;;37.25;30.25;100868.22;5030449;28;19909;-80
2022/07/16 09:48:44;;;;;;;;;;;;;;;38.06;28.86;100871.91;5040236;28;19923;-81
2022/07/16 09:51:12;;;;;;;;;;;;;;;39.38;26.98;100865.41;5030270;28;19909;-81
2022/07/16 09:53:43;;;;;;;;;;;;;;;39.95;26.11;100865.63;5041421;28;19908;-81
2022/07/16 09:56:09;;;;;;;;;;;;;;;38.08;28.75;100870.41;5013167;28;19912;-81
2022/07/16 09:58:34;;;;;;;;;;;;;;;38.19;27.79;100874.44;5034328;28;20059;-83
2022/07/16 10:01:00;;;;;;;;;;;;;;;38.71;27.52;100869.53;5013498;28;20317;-81
2022/07/16 10:03:25;;;;;;;;;;;;;;;39.43;25.24;100855.94;5016597;28;20444;-81
2022/07/16 10:05:51;;;;;;;;;;;;;;;40.00;24.40;100857.75;5032591;28;19912;-82
2022/07/16 10:08:16;;;;;;;;;;;;;;;39.25;25.50;100850.53;5032383;28;19952;-78
2022/07/16 10:10:42;;;;;;;;;;;;;;;38.97;26.30;100852.38;5037032;28;19960;-79
2022/07/16 10:13:09;;;;;;;;;;;;;;;38.37;26.23;100855.44;5038114;28;19996;-80
2022/07/16 10:15:34;;;;;;;;;;;;;;;38.98;26.24;100857.63;5020447;28;20266;-80
2022/07/16 10:18:00;;;;;;;;;;;;;;;38.44;26.56;100860.50;5019242;28;19987;-81
2022/07/16 10:20:25;;;;;;;;;;;;;;;37.11;27.02;100854.41;5024633;28;19913;-81
2022/07/16 10:22:50;;;;;;;;;;;;;;;37.84;26.66;100862.63;5040122;28;20306;-80
2022/07/16 10:25:28;;;;;;;;;;;;;;;38.21;26.32;100858.06;5034264;28;19909;-81
2022/07/16 10:27:53;;;;;;;;;;;;;;;37.78;27.79;100862.00;5007430;28;19944;-81
2022/07/16 10:30:19;;;;;;;;;;;;;;;39.04;26.49;100866.69;5017544;28;20487;-81
2022/07/16 10:33:00;;;;;;;;;;;;;;;38.29;26.83;100869.56;5038552;28;19984;-81
2022/07/16 10:35:32;;;;;;;;;;;;;;;38.01;28.04;100868.13;5034965;28;19961;-79
2022/07/16 10:38:08;;;;;;;;;;;;;;;37.59;28.95;100864.44;5020893;28;19943;-83
2022/07/16 10:40:33;;;;;;;;;;;;;;;37.59;28.47;100865.25;5033639;28;20012;-79
2022/07/16 10:43:11;;;;;;;;;;;;;;;37.23;29.00;100873.31;5039739;28;19959;-79
2022/07/16 10:45:52;;;;;;;;;;;;;;;36.66;29.30;100855.69;5034538;28;19920;-82
2022/07/16 10:48:18;;;;;;;;;;;;;;;35.88;31.18;100858.47;5039352;28;20373;-81
2022/07/16 10:51:02;;;;;;;;;;;;;;;36.72;30.58;100854.38;5033383;28;19908;-79
2022/07/16 10:53:30;;;;;;;;;;;;;;;36.14;31.09;100855.72;5044544;28;19942;-83
2022/07/16 10:55:56;;;;;;;;;;;;;;;34.67;33.91;100852.03;5032499;28;19909;-80
2022/07/16 10:58:26;;;;;;;;;;;;;;;34.24;34.13;100869.28;5001820;28;19924;-84
2022/07/16 11:00:52;;;;;;;;;;;;;;;33.80;35.50;100859.66;5015802;28;19990;-82
2022/07/16 11:03:17;;;;;;;;;;;;;;;32.87;35.84;100859.78;5010664;28;20316;-79
2022/07/16 11:05:43;;;;;;;;;;;;;;;32.56;37.24;100851.16;5016909;28;19909;-79
2022/07/16 11:08:10;;;;;;;;;;;;;;;32.00;37.94;100858.41;5018317;28;19971;-80
2022/07/16 11:10:35;;;;;;;;;;;;;;;32.26;37.52;100852.47;5018408;28;20008;-80
2022/07/16 11:13:01;;;;;;;;;;;;;;;31.63;39.36;100860.00;5009392;28;20003;-79
2022/07/16 11:15:26;;;;;;;;;;;;;;;31.55;39.17;100853.13;5019127;28;19913;-79
2022/07/16 11:17:55;;;;;;;;;;;;;;;31.48;38.99;100857.41;5017490;28;19913;-81
2022/07/16 11:20:32;;;;;;;;;;;;;;;31.18;39.65;100858.56;5029770;28;19927;-82
2022/07/16 11:23:06;;;;;;;;;;;;;;;30.94;40.47;100859.38;5028275;28;20317;-78
2022/07/16 11:25:32;;;;;;;;;;;;;;;31.46;39.22;100848.53;5015796;28;19920;-80
2022/07/16 11:28:00;;;;;;;;;;;;;;;31.19;39.06;100847.16;5040217;28;19913;-77
2022/07/16 11:30:25;;;;;;;;;;;;;;;31.15;38.70;100854.44;5015308;28;19913;-78
2022/07/16 11:32:51;;;;;;;;;;;;;;;30.77;40.06;100853.41;5043836;28;19964;-80
2022/07/16 11:35:16;;;;;;;;;;;;;;;30.96;39.80;100856.31;5037688;28;19945;-78
2022/07/16 11:37:50;;;;;;;;;;;;;;;31.43;38.92;100849.16;5015761;28;20008;-79
2022/07/16 11:40:16;;;;;;;;;;;;;;;31.46;37.44;100848.53;5032603;28;19909;-80
2022/07/16 11:42:41;;;;;;;;;;;;;;;31.55;37.17;100844.81;5017874;28;20007;-80
2022/07/16 11:45:10;;;;;;;;;;;;;;;30.98;37.39;100845.75;5037904;28;20408;-80
2022/07/16 11:47:35;;;;;;;;;;;;;;;31.27;37.59;100840.94;5033725;28;19909;-80
2022/07/16 11:50:00;;;;;;;;;;;;;;;31.32;36.96;100843.66;5026819;28;19909;-80
2022/07/16 11:52:26;;;;;;;;;;;;;;;31.91;35.84;100843.50;5035660;28;20409;-80
2022/07/16 11:54:52;;;;;;;;;;;;;;;32.04;34.77;100842.78;5041200;28;19916;-79
2022/07/16 11:57:17;;;;;;;;;;;;;;;32.26;34.77;100844.09;5016068;28;19925;-79
2022/07/16 12:00:01;;;;;;;;;;;;;;;31.90;35.49;100841.84;5033538;28;19915;-78
2022/07/16 12:02:26;;;;;;;;;;;;;;;32.10;36.22;100844.38;5016792;28;19916;-80
2022/07/16 12:04:53;;;;;;;;;;;;;;;31.49;37.24;100845.16;5034129;28;19931;-82
2022/07/16 12:07:29;;;;;;;;;;;;;;;31.53;37.72;100838.72;5017465;28;19956;-81
2022/07/16 12:09:59;;;;;;;;;;;;;;;31.81;37.45;100838.91;5013867;28;19909;-80
2022/07/16 12:12:28;;;;;;;;;;;;;;;31.74;37.60;100835.66;5029238;28;20377;-79
2022/07/16 12:15:00;;;;;;;;;;;;;;;31.34;38.19;100835.03;5032384;28;20061;-79
2022/07/16 12:17:33;;;;;;;;;;;;;;;31.46;38.83;100837.44;5031166;28;19913;-80
2022/07/16 12:20:12;;;;;;;;;;;;;;;31.65;39.65;100835.50;5017866;28;19908;-80
2022/07/16 12:22:44;;;;;;;;;;;;;;;31.49;39.35;100832.13;5036437;28;19952;-80
2022/07/16 12:25:18;;;;;;;;;;;;;;;31.42;39.15;100834.44;5033078;28;19909;-80
2022/07/16 12:27:47;;;;;;;;;;;;;;;31.11;40.47;100836.69;5037421;28;19995;-81
2022/07/16 12:30:12;;;;;;;;;;;;;;;30.57;41.31;100837.75;5033111;28;20257;-80
2022/07/16 12:32:50;;;;;;;;;;;;;;;30.62;41.42;100840.47;5034968;28;19980;-79
2022/07/16 12:35:34;;;;;;;;;;;;;;;30.40;41.60;100832.63;5033706;28;19947;-78